createdAt,value
2018-05-13T00:00:52.660Z,18.93
2018-05-13T00:01:53.716Z,18.81
2018-05-13T00:02:52.911Z,18.88
2018-05-13T00:03:53.194Z,18.81
2018-05-13T00:04:52.927Z,18.81
2018-05-13T00:05:52.661Z,18.74
2018-05-13T00:06:52.665Z,18.77
2018-05-13T00:07:53.182Z,18.68
2018-05-13T00:08:52.934Z,18.68
2018-05-13T00:09:52.927Z,18.62
2018-05-13T00:10:52.678Z,18.66
2018-05-13T00:11:53.202Z,18.68
2018-05-13T00:12:53.204Z,18.68
2018-05-13T00:13:53.210Z,18.59
2018-05-13T00:14:52.929Z,18.62
2018-05-13T00:15:52.666Z,18.52
2018-05-13T00:16:53.208Z,18.56
2018-05-13T00:17:53.219Z,18.53
2018-05-13T00:18:52.946Z,18.55
2018-05-13T00:19:52.944Z,18.53
2018-05-13T00:20:52.945Z,18.58
2018-05-13T00:21:52.940Z,18.58
2018-05-13T00:22:53.213Z,18.58
2018-05-13T00:23:52.687Z,18.56
2018-05-13T00:24:52.950Z,18.59
2018-05-13T00:25:53.048Z,18.56
2018-05-13T00:26:53.481Z,18.58
2018-05-13T00:27:52.951Z,18.53
2018-05-13T00:28:52.957Z,18.53
2018-05-13T00:29:52.683Z,18.45
2018-05-13T00:30:53.227Z,18.58
2018-05-13T00:31:52.964Z,18.41
2018-05-13T00:32:52.953Z,18.5
2018-05-13T00:33:53.235Z,18.4
2018-05-13T00:34:52.706Z,18.45
2018-05-13T00:35:52.951Z,18.38
2018-05-13T00:36:52.952Z,18.41
2018-05-13T00:37:52.959Z,18.34
2018-05-13T00:38:52.970Z,18.5
2018-05-13T00:39:52.958Z,18.37
2018-05-13T00:40:52.831Z,18.38
2018-05-13T00:41:53.244Z,18.35
2018-05-13T00:42:52.705Z,18.38
2018-05-13T00:43:52.955Z,18.44
2018-05-13T00:44:53.223Z,18.35
2018-05-13T00:45:53.299Z,18.31
2018-05-13T00:46:53.254Z,18.34
2018-05-13T00:47:52.709Z,18.31
2018-05-13T00:48:52.976Z,18.29
2018-05-13T00:49:52.966Z,18.28
2018-05-13T00:50:52.963Z,18.22
2018-05-13T00:51:53.237Z,18.2
2018-05-13T00:52:52.966Z,18.22
2018-05-13T00:53:52.960Z,18.2
2018-05-13T00:54:52.971Z,18.19
2018-05-13T00:55:53.229Z,18.1
2018-05-13T00:56:53.513Z,18.2
2018-05-13T00:57:52.733Z,18.2
2018-05-13T00:58:53.251Z,18.22
2018-05-13T00:59:52.974Z,18.2
2018-05-13T01:00:53.242Z,18.22
2018-05-13T01:01:52.970Z,18.2
2018-05-13T01:02:53.120Z,18.2
2018-05-13T01:03:53.237Z,18.13
2018-05-13T01:04:52.975Z,18.11
2018-05-13T01:05:52.981Z,18.07
2018-05-13T01:06:52.979Z,18.07
2018-05-13T01:07:52.992Z,18.07
2018-05-13T01:08:52.998Z,18.04
2018-05-13T01:09:52.723Z,18
2018-05-13T01:10:52.976Z,17.98
2018-05-13T01:11:52.984Z,18
2018-05-13T01:12:53.240Z,17.92
2018-05-13T01:13:52.985Z,17.94
2018-05-13T01:14:52.724Z,17.79
2018-05-13T01:15:53.037Z,17.78
2018-05-13T01:16:52.996Z,17.8
2018-05-13T01:17:52.976Z,17.78
2018-05-13T01:18:53.264Z,17.76
2018-05-13T01:19:52.720Z,17.74
2018-05-13T01:20:53.315Z,17.74
2018-05-13T01:21:53.245Z,17.74
2018-05-13T01:22:53.250Z,17.76
2018-05-13T01:23:53.002Z,17.7
2018-05-13T01:24:53.247Z,17.68
2018-05-13T01:25:53.075Z,17.68
2018-05-13T01:26:54.134Z,17.68
2018-05-13T01:27:52.995Z,17.64
2018-05-13T01:28:52.991Z,17.57
2018-05-13T01:29:52.989Z,17.65
2018-05-13T01:30:53.265Z,17.67
2018-05-13T01:31:53.256Z,17.68
2018-05-13T01:32:53.005Z,17.68
2018-05-13T01:33:53.263Z,17.7
2018-05-13T01:34:53.006Z,17.65
2018-05-13T01:35:53.038Z,17.68
2018-05-13T01:36:52.742Z,17.68
2018-05-13T01:37:53.002Z,17.7
2018-05-13T01:38:53.009Z,17.68
2018-05-13T01:39:52.745Z,17.76
2018-05-13T01:40:53.289Z,17.76
2018-05-13T01:41:53.052Z,17.76
2018-05-13T01:42:53.286Z,17.78
2018-05-13T01:43:53.013Z,17.82
2018-05-13T01:44:53.280Z,17.83
2018-05-13T01:45:53.009Z,17.76
2018-05-13T01:46:53.288Z,17.78
2018-05-13T01:47:52.763Z,17.83
2018-05-13T01:48:53.261Z,17.76
2018-05-13T01:49:53.289Z,17.86
2018-05-13T01:50:53.276Z,17.86
2018-05-13T01:51:53.280Z,17.79
2018-05-13T01:52:53.282Z,17.94
2018-05-13T01:53:53.286Z,17.87
2018-05-13T01:54:53.010Z,18
2018-05-13T01:55:53.344Z,17.94
2018-05-13T01:56:54.276Z,17.92
2018-05-13T01:57:53.271Z,17.9
2018-05-13T01:58:53.018Z,17.95
2018-05-13T01:59:53.059Z,17.89
2018-05-13T02:00:53.349Z,17.97
2018-05-13T02:01:53.273Z,17.97
2018-05-13T02:02:53.018Z,18.1
2018-05-13T02:03:53.280Z,18.07
2018-05-13T02:04:53.278Z,18.15
2018-05-13T02:05:53.282Z,18.1
2018-05-13T02:06:53.280Z,18.13
2018-05-13T02:07:53.315Z,18.16
2018-05-13T02:08:53.353Z,18.13
2018-05-13T02:09:53.016Z,18.07
2018-05-13T02:10:53.323Z,18.08
2018-05-13T02:11:53.024Z,18.1
2018-05-13T02:12:53.280Z,18.07
2018-05-13T02:13:53.284Z,18.15
2018-05-13T02:14:53.278Z,18.18
2018-05-13T02:15:53.023Z,18.19
2018-05-13T02:16:53.019Z,18.18
2018-05-13T02:17:53.018Z,18.15
2018-05-13T02:18:53.289Z,18.16
2018-05-13T02:19:53.321Z,18.22
2018-05-13T02:20:53.316Z,18.05
2018-05-13T02:21:53.291Z,18.08
2018-05-13T02:22:53.296Z,18.04
2018-05-13T02:23:53.032Z,18.01
2018-05-13T02:24:53.296Z,17.97
2018-05-13T02:25:53.086Z,17.97
2018-05-13T02:26:56.695Z,17.86
2018-05-13T02:27:53.284Z,17.87
2018-05-13T02:28:53.295Z,17.79
2018-05-13T02:29:53.297Z,17.79
2018-05-13T02:30:53.075Z,17.79
2018-05-13T02:31:53.037Z,17.76
2018-05-13T02:32:53.309Z,17.74
2018-05-13T02:33:53.321Z,17.71
2018-05-13T02:34:53.026Z,17.65
2018-05-13T02:35:53.356Z,17.67
2018-05-13T02:36:53.299Z,17.72
2018-05-13T02:37:53.300Z,17.74
2018-05-13T02:38:53.291Z,17.72
2018-05-13T02:39:53.335Z,17.67
2018-05-13T02:40:52.924Z,17.57
2018-05-13T02:41:53.324Z,17.64
2018-05-13T02:42:53.335Z,17.57
2018-05-13T02:43:53.042Z,17.51
2018-05-13T02:44:53.395Z,17.59
2018-05-13T02:45:53.306Z,17.57
2018-05-13T02:46:53.329Z,17.59
2018-05-13T02:47:53.329Z,17.56
2018-05-13T02:48:53.312Z,17.6
2018-05-13T02:49:53.302Z,17.57
2018-05-13T02:50:53.317Z,17.52
2018-05-13T02:51:53.306Z,17.56
2018-05-13T02:52:52.793Z,17.57
2018-05-13T02:53:53.051Z,17.59
2018-05-13T02:54:53.085Z,17.6
2018-05-13T02:55:53.098Z,17.52
2018-05-13T02:56:53.043Z,17.46
2018-05-13T02:57:53.055Z,17.59
2018-05-13T02:58:53.054Z,17.57
2018-05-13T02:59:53.307Z,17.59
2018-05-13T03:00:53.313Z,17.64
2018-05-13T03:01:53.310Z,17.54
2018-05-13T03:02:53.310Z,17.63
2018-05-13T03:03:53.057Z,17.57
2018-05-13T03:04:53.327Z,17.54
2018-05-13T03:05:53.360Z,17.63
2018-05-13T03:06:53.321Z,17.56
2018-05-13T03:07:53.058Z,17.56
2018-05-13T03:08:53.249Z,17.59
2018-05-13T03:09:53.336Z,17.57
2018-05-13T03:10:53.097Z,17.54
2018-05-13T03:11:53.330Z,17.63
2018-05-13T03:12:53.337Z,17.56
2018-05-13T03:13:52.806Z,17.51
2018-05-13T03:14:53.153Z,17.65
2018-05-13T03:15:53.217Z,17.57
2018-05-13T03:16:53.356Z,17.45
2018-05-13T03:17:53.085Z,17.46
2018-05-13T03:18:53.073Z,17.49
2018-05-13T03:19:53.325Z,17.52
2018-05-13T03:20:53.101Z,17.52
2018-05-13T03:21:53.082Z,17.41
2018-05-13T03:22:53.321Z,17.41
2018-05-13T03:23:52.802Z,17.41
2018-05-13T03:24:52.808Z,17.36
2018-05-13T03:25:53.123Z,17.42
2018-05-13T03:26:53.350Z,17.44
2018-05-13T03:27:53.092Z,17.51
2018-05-13T03:28:52.811Z,17.52
2018-05-13T03:29:53.350Z,17.49
2018-05-13T03:30:53.105Z,17.49
2018-05-13T03:31:53.092Z,17.51
2018-05-13T03:32:52.809Z,17.49
2018-05-13T03:33:53.075Z,17.46
2018-05-13T03:34:53.093Z,17.52
2018-05-13T03:35:53.335Z,17.51
2018-05-13T03:36:53.116Z,17.51
2018-05-13T03:37:53.352Z,17.41
2018-05-13T03:38:53.077Z,17.41
2018-05-13T03:39:53.095Z,17.42
2018-05-13T03:40:53.354Z,17.42
2018-05-13T03:41:53.101Z,17.45
2018-05-13T03:42:53.077Z,17.46
2018-05-13T03:43:53.099Z,17.41
2018-05-13T03:44:53.104Z,17.34
2018-05-13T03:45:53.376Z,17.39
2018-05-13T03:46:53.340Z,17.42
2018-05-13T03:47:53.099Z,17.42
2018-05-13T03:48:53.083Z,17.38
2018-05-13T03:49:53.359Z,17.34
2018-05-13T03:50:53.102Z,17.36
2018-05-13T03:51:52.822Z,17.29
2018-05-13T03:52:53.356Z,17.38
2018-05-13T03:53:53.107Z,17.34
2018-05-13T03:54:53.107Z,17.34
2018-05-13T03:55:53.353Z,17.38
2018-05-13T03:56:53.368Z,17.34
2018-05-13T03:57:53.651Z,17.45
2018-05-13T03:58:53.338Z,17.31
2018-05-13T03:59:53.365Z,17.34
2018-05-13T04:00:53.227Z,17.34
2018-05-13T04:01:53.082Z,17.31
2018-05-13T04:02:53.367Z,17.31
2018-05-13T04:03:53.353Z,17.31
2018-05-13T04:04:53.110Z,17.3
2018-05-13T04:05:53.111Z,17.31
2018-05-13T04:06:53.082Z,17.23
2018-05-13T04:07:53.344Z,17.31
2018-05-13T04:08:52.823Z,17.23
2018-05-13T04:09:53.364Z,17.16
2018-05-13T04:10:53.083Z,17.16
2018-05-13T04:11:53.084Z,17.22
2018-05-13T04:12:52.833Z,17.15
2018-05-13T04:13:53.127Z,17.22
2018-05-13T04:14:53.344Z,17.16
2018-05-13T04:15:53.184Z,17.23
2018-05-13T04:16:53.349Z,17.29
2018-05-13T04:17:52.830Z,17.42
2018-05-13T04:18:53.348Z,17.38
2018-05-13T04:19:53.368Z,17.39
2018-05-13T04:20:53.130Z,17.49
2018-05-13T04:21:52.818Z,17.49
2018-05-13T04:22:53.383Z,17.65
2018-05-13T04:23:53.356Z,17.6
2018-05-13T04:24:53.357Z,17.64
2018-05-13T04:25:52.836Z,17.57
2018-05-13T04:26:53.096Z,17.46
2018-05-13T04:27:53.368Z,17.45
2018-05-13T04:28:53.376Z,17.39
2018-05-13T04:29:53.121Z,17.41
2018-05-13T04:30:53.383Z,17.27
2018-05-13T04:31:53.392Z,17.36
2018-05-13T04:32:53.117Z,17.38
2018-05-13T04:33:53.099Z,17.3
2018-05-13T04:34:52.834Z,17.29
2018-05-13T04:35:53.374Z,17.36
2018-05-13T04:36:53.125Z,17.31
2018-05-13T04:37:53.094Z,17.33
2018-05-13T04:38:53.106Z,17.27
2018-05-13T04:39:53.101Z,17.23
2018-05-13T04:40:53.390Z,17.2
2018-05-13T04:41:53.404Z,17.29
2018-05-13T04:42:53.182Z,17.14
2018-05-13T04:43:52.838Z,17.16
2018-05-13T04:44:52.838Z,17.15
2018-05-13T04:45:53.391Z,17.22
2018-05-13T04:46:53.127Z,17.26
2018-05-13T04:47:53.126Z,17.33
2018-05-13T04:48:53.121Z,17.38
2018-05-13T04:49:53.109Z,17.36
2018-05-13T04:50:53.103Z,17.33
2018-05-13T04:51:53.124Z,17.39
2018-05-13T04:52:52.841Z,17.36
2018-05-13T04:53:53.127Z,17.38
2018-05-13T04:54:53.106Z,17.36
2018-05-13T04:55:53.111Z,17.31
2018-05-13T04:56:53.098Z,17.48
2018-05-13T04:57:54.253Z,17.45
2018-05-13T04:58:52.837Z,17.3
2018-05-13T04:59:53.103Z,17.39
2018-05-13T05:00:53.112Z,17.36
2018-05-13T05:01:53.372Z,17.33
2018-05-13T05:02:52.841Z,17.39
2018-05-13T05:03:53.102Z,17.41
2018-05-13T05:04:53.138Z,17.46
2018-05-13T05:05:53.138Z,17.51
2018-05-13T05:06:53.382Z,17.46
2018-05-13T05:07:53.113Z,17.6
2018-05-13T05:08:53.223Z,17.63
2018-05-13T05:09:53.106Z,17.63
2018-05-13T05:10:53.402Z,17.64
2018-05-13T05:11:53.136Z,17.72
2018-05-13T05:12:53.386Z,17.71
2018-05-13T05:13:53.109Z,17.7
2018-05-13T05:14:53.377Z,17.68
2018-05-13T05:15:53.546Z,17.74
2018-05-13T05:16:52.850Z,17.76
2018-05-13T05:17:53.114Z,17.78
2018-05-13T05:18:53.120Z,17.8
2018-05-13T05:19:53.112Z,17.74
2018-05-13T05:20:53.137Z,17.8
2018-05-13T05:21:53.124Z,17.79
2018-05-13T05:22:53.382Z,17.82
2018-05-13T05:23:52.862Z,17.82
2018-05-13T05:24:53.122Z,17.78
2018-05-13T05:25:53.184Z,17.78
2018-05-13T05:26:52.868Z,17.76
2018-05-13T05:27:58.703Z,17.83
2018-05-13T05:28:53.145Z,17.94
2018-05-13T05:29:53.158Z,17.85
2018-05-13T05:30:53.395Z,17.89
2018-05-13T05:31:53.148Z,17.89
2018-05-13T05:32:53.166Z,17.86
2018-05-13T05:33:53.195Z,17.94
2018-05-13T05:34:53.147Z,17.97
2018-05-13T05:35:53.679Z,17.92
2018-05-13T05:36:53.168Z,17.87
2018-05-13T05:37:53.399Z,17.85
2018-05-13T05:38:53.392Z,17.89
2018-05-13T05:39:53.156Z,17.92
2018-05-13T05:40:53.178Z,17.83
2018-05-13T05:41:53.399Z,17.83
2018-05-13T05:42:53.131Z,17.78
2018-05-13T05:43:53.402Z,17.95
2018-05-13T05:44:53.407Z,17.97
2018-05-13T05:45:53.228Z,18.03
2018-05-13T05:46:53.148Z,18.16
2018-05-13T05:47:53.408Z,18.28
2018-05-13T05:48:53.191Z,18.34
2018-05-13T05:49:53.416Z,18.49
2018-05-13T05:50:52.912Z,18.5
2018-05-13T05:51:53.163Z,18.56
2018-05-13T05:52:53.161Z,18.59
2018-05-13T05:53:53.454Z,18.71
2018-05-13T05:54:53.415Z,18.83
2018-05-13T05:55:53.464Z,18.89
2018-05-13T05:56:53.193Z,19.07
2018-05-13T05:57:53.176Z,19.24
2018-05-13T05:58:53.162Z,19.31
2018-05-13T05:59:53.499Z,19.69
2018-05-13T06:00:53.292Z,19.92
2018-05-13T06:01:53.172Z,20.34
2018-05-13T06:02:53.167Z,20.82
2018-05-13T06:03:53.180Z,21.17
2018-05-13T06:04:53.303Z,21.6
2018-05-13T06:05:53.285Z,22.04
2018-05-13T06:06:53.186Z,22.36
2018-05-13T06:07:53.445Z,22.68
2018-05-13T06:08:53.184Z,22.98
2018-05-13T06:09:52.919Z,23.31
2018-05-13T06:10:53.185Z,23.51
2018-05-13T06:11:53.452Z,23.8
2018-05-13T06:12:53.459Z,24.03
2018-05-13T06:23:36.683Z,24.84
2018-05-13T06:24:37.194Z,25.08
2018-05-13T06:25:36.946Z,25.47
2018-05-13T06:26:36.940Z,25.95
2018-05-13T06:27:36.680Z,26.33
2018-05-13T06:28:37.206Z,26.23
2018-05-13T06:29:36.951Z,25.99
2018-05-13T06:30:36.956Z,25.51
2018-05-13T06:31:36.964Z,24.84
2018-05-13T06:32:37.317Z,23.92
2018-05-13T06:33:37.343Z,23.39
2018-05-13T06:34:37.234Z,23
2018-05-13T06:35:37.236Z,22.73
2018-05-13T06:36:37.001Z,22.47
2018-05-13T06:37:37.250Z,22.2
2018-05-13T06:38:37.009Z,21.98
2018-05-13T06:39:37.498Z,21.91
2018-05-13T06:40:37.008Z,21.79
2018-05-13T06:41:37.284Z,21.67
2018-05-13T06:42:37.294Z,21.62
2018-05-13T06:43:37.289Z,21.79
2018-05-13T06:44:37.031Z,21.92
2018-05-13T06:45:37.285Z,21.89
2018-05-13T06:46:37.309Z,21.83
2018-05-13T06:47:37.040Z,21.85
2018-05-13T06:48:37.050Z,21.72
2018-05-13T06:49:37.104Z,21.51
2018-05-13T06:50:37.390Z,21.55
2018-05-13T06:51:37.264Z,21.57
2018-05-13T06:52:37.319Z,21.58
2018-05-13T06:53:37.091Z,21.89
2018-05-13T06:54:37.329Z,21.8
2018-05-13T06:55:37.079Z,21.91
2018-05-13T06:56:37.356Z,22.11
2018-05-13T06:57:37.092Z,22.26
2018-05-13T06:58:37.343Z,22.47
2018-05-13T06:59:37.104Z,22.55
2018-05-13T07:00:37.358Z,22.59
2018-05-13T07:01:37.093Z,22.63
2018-05-13T07:02:37.390Z,22.83
2018-05-13T07:03:37.219Z,22.87
2018-05-13T07:04:37.115Z,22.98
2018-05-13T07:05:37.114Z,23.05
2018-05-13T07:06:37.399Z,23.15
2018-05-13T07:07:37.144Z,23.17
2018-05-13T07:08:37.132Z,23.13
2018-05-13T07:09:37.394Z,23.06
2018-05-13T07:10:37.160Z,23.27
2018-05-13T07:11:37.404Z,23.43
2018-05-13T07:12:36.894Z,23.63
2018-05-13T07:13:37.152Z,23.41
2018-05-13T07:14:37.160Z,23.31
2018-05-13T07:15:37.173Z,22.96
2018-05-13T07:16:37.170Z,22.66
2018-05-13T07:17:37.427Z,22.32
2018-05-13T07:18:37.424Z,22
2018-05-13T07:19:36.929Z,21.72
2018-05-13T07:20:37.182Z,21.5
2018-05-13T07:21:37.459Z,21.22
2018-05-13T07:22:37.191Z,21.09
2018-05-13T07:23:37.448Z,21.14
2018-05-13T07:24:37.472Z,21.21
2018-05-13T07:25:37.203Z,21.22
2018-05-13T07:26:37.470Z,21.27
2018-05-13T07:27:37.473Z,21.25
2018-05-13T07:28:37.238Z,21.02
2018-05-13T07:29:37.481Z,20.96
2018-05-13T07:30:37.218Z,20.82
2018-05-13T07:31:37.487Z,20.66
2018-05-13T07:32:37.494Z,20.67
2018-05-13T07:33:40.539Z,20.7
2018-05-13T07:34:37.257Z,20.69
2018-05-13T07:35:37.245Z,20.52
2018-05-13T07:36:37.504Z,20.55
2018-05-13T07:37:37.533Z,20.43
2018-05-13T07:38:37.258Z,20.34
2018-05-13T07:39:37.515Z,20.36
2018-05-13T07:40:37.273Z,20.4
2018-05-13T07:41:37.527Z,20.31
2018-05-13T07:42:37.271Z,20.25
2018-05-13T07:43:37.405Z,20.25
2018-05-13T07:44:37.534Z,20.13
2018-05-13T07:45:37.536Z,20.18
2018-05-13T07:46:37.026Z,20.02
2018-05-13T07:47:37.541Z,19.91
2018-05-13T07:48:37.295Z,19.73
2018-05-13T07:49:37.282Z,19.64
2018-05-13T07:50:37.556Z,19.62
2018-05-13T07:51:37.290Z,19.69
2018-05-13T07:52:37.320Z,19.74
2018-05-13T07:53:37.563Z,19.69
2018-05-13T07:54:37.045Z,19.69
2018-05-13T07:55:37.293Z,19.86
2018-05-13T07:56:37.036Z,19.73
2018-05-13T07:57:37.583Z,19.69
2018-05-13T07:58:37.653Z,19.67
2018-05-13T07:59:37.560Z,19.79
2018-05-13T08:00:37.618Z,19.88
2018-05-13T08:01:37.055Z,19.84
2018-05-13T08:02:37.579Z,19.81
2018-05-13T08:03:37.327Z,19.84
2018-05-13T08:04:37.342Z,19.89
2018-05-13T08:05:37.058Z,19.94
2018-05-13T08:06:37.599Z,20.04
2018-05-13T08:07:37.343Z,20.07
2018-05-13T08:08:37.602Z,20.06
2018-05-13T08:09:37.604Z,20.09
2018-05-13T08:10:37.344Z,20.11
2018-05-13T08:11:37.359Z,20.16
2018-05-13T08:12:37.600Z,20.28
2018-05-13T08:13:37.340Z,20.29
2018-05-13T08:14:37.341Z,20.47
2018-05-13T08:15:37.347Z,20.39
2018-05-13T08:16:37.358Z,20.32
2018-05-13T08:17:37.613Z,20.56
2018-05-13T08:18:37.625Z,20.66
2018-05-13T08:19:37.623Z,20.66
2018-05-13T08:20:37.981Z,20.7
2018-05-13T08:21:37.631Z,20.67
2018-05-13T08:22:37.367Z,20.56
2018-05-13T08:23:37.632Z,20.63
2018-05-13T08:24:37.366Z,20.65
2018-05-13T08:25:37.660Z,20.87
2018-05-13T08:26:37.378Z,21.03
2018-05-13T08:27:37.119Z,21.2
2018-05-13T08:28:37.116Z,21.24
2018-05-13T08:29:37.118Z,21.25
2018-05-13T08:30:37.383Z,21.39
2018-05-13T08:31:37.405Z,21.58
2018-05-13T08:32:37.397Z,21.54
2018-05-13T08:33:37.445Z,21.72
2018-05-13T08:34:37.394Z,21.72
2018-05-13T08:35:37.404Z,21.72
2018-05-13T08:36:37.684Z,21.66
2018-05-13T08:37:37.435Z,21.64
2018-05-13T08:38:37.434Z,21.55
2018-05-13T08:39:37.692Z,21.39
2018-05-13T08:40:37.686Z,21.37
2018-05-13T08:41:37.677Z,21.39
2018-05-13T08:42:37.704Z,21.35
2018-05-13T08:43:37.438Z,21.22
2018-05-13T08:44:37.441Z,21.2
2018-05-13T08:45:37.170Z,21.15
2018-05-13T08:46:37.439Z,21.12
2018-05-13T08:47:37.440Z,21.2
2018-05-13T08:48:37.594Z,21.24
2018-05-13T08:49:37.717Z,21.2
2018-05-13T08:50:37.732Z,21.07
2018-05-13T08:51:37.464Z,20.95
2018-05-13T08:52:37.496Z,21.02
2018-05-13T08:53:37.730Z,20.9
2018-05-13T08:54:37.224Z,20.74
2018-05-13T08:55:37.742Z,20.55
2018-05-13T08:56:37.733Z,20.37
2018-05-13T08:57:37.733Z,20.29
2018-05-13T08:58:37.746Z,20.41
2018-05-13T08:59:37.939Z,20.28
2018-05-13T09:00:37.504Z,20.19
2018-05-13T09:01:37.495Z,20.16
2018-05-13T09:02:37.764Z,20.18
2018-05-13T09:03:37.765Z,20.14
2018-05-13T09:04:38.301Z,20.06
2018-05-13T09:05:37.499Z,19.91
2018-05-13T09:06:37.514Z,19.94
2018-05-13T09:07:37.791Z,20.02
2018-05-13T09:08:38.032Z,19.88
2018-05-13T09:09:37.517Z,19.82
2018-05-13T09:10:37.510Z,19.85
2018-05-13T09:11:37.534Z,19.79
2018-05-13T09:12:37.834Z,19.82
2018-05-13T09:13:37.524Z,19.89
2018-05-13T09:14:37.788Z,19.89
2018-05-13T09:15:37.536Z,19.92
2018-05-13T09:16:37.876Z,19.96
2018-05-13T09:17:37.535Z,20.06
2018-05-13T09:18:37.524Z,20.25
2018-05-13T09:19:37.537Z,20.24
2018-05-13T09:20:37.564Z,20.14
2018-05-13T09:21:37.562Z,20.06
2018-05-13T09:22:37.294Z,20.09
2018-05-13T09:23:37.803Z,20.02
2018-05-13T09:24:37.564Z,19.89
2018-05-13T09:25:37.804Z,19.85
2018-05-13T09:26:37.703Z,19.88
2018-05-13T09:27:37.299Z,19.69
2018-05-13T09:28:37.572Z,19.58
2018-05-13T09:29:37.565Z,19.49
2018-05-13T09:30:37.841Z,19.48
2018-05-13T09:31:37.571Z,19.45
2018-05-13T09:32:37.566Z,19.48
2018-05-13T09:33:37.563Z,19.48
2018-05-13T09:34:37.841Z,19.33
2018-05-13T09:35:37.577Z,19.27
2018-05-13T09:36:37.830Z,19.29
2018-05-13T09:37:37.936Z,19.3
2018-05-13T09:38:37.842Z,19.24
2018-05-13T09:39:37.712Z,19.29
2018-05-13T09:40:37.832Z,19.16
2018-05-13T09:41:37.580Z,19.12
2018-05-13T09:42:37.842Z,19.21
2018-05-13T09:43:37.338Z,19.29
2018-05-13T09:44:37.580Z,19.27
2018-05-13T09:45:37.583Z,19.3
2018-05-13T09:46:37.840Z,19.27
2018-05-13T09:47:37.586Z,19.39
2018-05-13T09:48:37.602Z,19.47
2018-05-13T09:49:37.617Z,19.52
2018-05-13T09:50:37.877Z,19.48
2018-05-13T09:51:37.916Z,19.47
2018-05-13T09:52:37.607Z,19.33
2018-05-13T09:53:37.602Z,19.3
2018-05-13T09:54:37.608Z,19.36
2018-05-13T09:55:37.607Z,19.26
2018-05-13T09:56:37.626Z,19.36
2018-05-13T09:57:37.784Z,19.24
2018-05-13T09:58:37.357Z,19.24
2018-05-13T09:59:37.882Z,19.29
2018-05-13T10:00:37.623Z,19.26
2018-05-13T10:01:37.888Z,19.19
2018-05-13T10:02:37.905Z,19.18
2018-05-13T10:03:37.655Z,19.27
2018-05-13T10:04:37.392Z,19.19
2018-05-13T10:05:37.625Z,19.14
2018-05-13T10:06:37.651Z,19.12
2018-05-13T10:07:37.658Z,19.08
2018-05-13T10:08:37.636Z,19.04
2018-05-13T10:09:37.819Z,19
2018-05-13T10:10:37.366Z,19.09
2018-05-13T10:11:37.913Z,19.11
2018-05-13T10:12:37.917Z,18.93
2018-05-13T10:13:37.655Z,18.98
2018-05-13T10:14:37.396Z,18.84
2018-05-13T10:15:37.908Z,18.84
2018-05-13T10:16:38.003Z,18.8
2018-05-13T10:17:37.923Z,18.71
2018-05-13T10:18:37.651Z,18.62
2018-05-13T10:19:38.284Z,18.53
2018-05-13T10:20:37.667Z,18.47
2018-05-13T10:21:37.658Z,18.49
2018-05-13T10:52:50.011Z,18.73
2018-05-13T10:53:49.480Z,18.83
2018-05-13T10:54:49.478Z,18.75
2018-05-13T10:55:50.018Z,18.75
2018-05-13T10:56:50.024Z,18.7
2018-05-13T10:57:50.208Z,18.7
2018-05-13T10:58:49.756Z,18.68
2018-05-13T10:59:49.738Z,18.6
2018-05-13T11:00:49.477Z,18.62
2018-05-13T11:01:49.735Z,18.71
2018-05-13T11:02:50.538Z,18.7
2018-05-13T11:03:49.993Z,18.73
2018-05-13T11:04:49.867Z,18.83
2018-05-13T11:05:49.753Z,18.92
2018-05-13T11:06:49.478Z,18.95
2018-05-13T11:07:50.027Z,18.96
2018-05-13T11:08:49.496Z,18.93
2018-05-13T11:09:49.737Z,18.9
2018-05-13T11:10:50.008Z,18.95
2018-05-13T11:11:49.740Z,18.84
2018-05-13T11:12:50.544Z,18.84
2018-05-13T11:13:49.483Z,18.83
2018-05-13T11:14:49.478Z,18.83
2018-05-13T11:15:50.015Z,18.86
2018-05-13T11:16:49.481Z,18.93
2018-05-13T11:17:49.764Z,18.96
2018-05-13T11:18:49.751Z,19.07
2018-05-13T11:19:49.761Z,19.07
2018-05-13T11:20:49.587Z,19.07
2018-05-13T11:21:50.015Z,19.02
2018-05-13T11:22:49.771Z,19.14
2018-05-13T11:23:50.020Z,19.04
2018-05-13T11:24:50.022Z,19
2018-05-13T11:25:49.755Z,19.04
2018-05-13T11:26:50.238Z,18.93
2018-05-13T11:27:49.501Z,18.98
2018-05-13T11:28:49.500Z,18.86
2018-05-13T11:29:50.069Z,18.86
2018-05-13T11:30:49.773Z,18.81
2018-05-13T11:31:50.027Z,18.83
2018-05-13T11:32:50.026Z,18.81
2018-05-13T11:33:49.951Z,18.81
2018-05-13T11:34:49.518Z,19.09
2018-05-13T11:35:49.778Z,19.16
2018-05-13T11:36:49.800Z,19.22
2018-05-13T11:37:49.786Z,19.29
2018-05-13T11:38:49.785Z,19.26
2018-05-13T11:39:49.867Z,19.29
2018-05-13T11:40:49.798Z,19.49
2018-05-13T11:41:49.791Z,19.49
2018-05-13T11:42:50.042Z,19.54
2018-05-13T11:43:49.792Z,19.55
2018-05-13T11:44:49.532Z,19.63
2018-05-13T11:45:49.803Z,19.67
2018-05-13T11:46:50.332Z,19.84
2018-05-13T11:47:50.057Z,20
2018-05-13T11:48:49.801Z,20.04
2018-05-13T11:49:50.057Z,20.24
2018-05-13T11:50:50.066Z,20.32
2018-05-13T11:51:49.806Z,20.31
2018-05-13T11:52:50.074Z,20.32
2018-05-13T11:53:49.819Z,20.28
2018-05-13T11:54:49.809Z,20.14
2018-05-13T11:55:49.550Z,20.04
2018-05-13T11:56:49.830Z,19.82
2018-05-13T11:57:49.557Z,19.84
2018-05-13T11:58:49.568Z,19.71
2018-05-13T11:59:49.829Z,19.74
2018-05-13T12:00:50.098Z,19.76
2018-05-13T12:01:49.566Z,19.82
2018-05-13T12:02:49.843Z,19.82
2018-05-13T12:03:50.100Z,19.95
2018-05-13T12:04:49.847Z,19.85
2018-05-13T12:05:50.134Z,19.84
2018-05-13T12:06:49.849Z,19.92
2018-05-13T12:07:49.576Z,19.99
2018-05-13T12:08:49.848Z,19.95
2018-05-13T12:09:50.124Z,19.92
2018-05-13T12:10:49.878Z,19.82
2018-05-13T12:11:49.684Z,19.85
2018-05-13T12:12:49.892Z,19.76
2018-05-13T12:13:49.872Z,19.82
2018-05-13T12:14:49.874Z,19.73
2018-05-13T12:15:50.124Z,19.63
2018-05-13T12:16:50.477Z,19.54
2018-05-13T12:17:49.866Z,19.48
2018-05-13T12:18:49.887Z,19.69
2018-05-13T12:19:50.152Z,19.71
2018-05-13T12:20:49.893Z,19.82
2018-05-13T12:21:49.880Z,19.94
2018-05-13T12:22:50.201Z,20
2018-05-13T12:23:49.887Z,20.14
2018-05-13T12:24:49.913Z,20.24
2018-05-13T12:25:50.236Z,20.34
2018-05-13T12:26:49.675Z,20.36
2018-05-13T12:27:49.950Z,20.36
2018-05-13T12:28:49.945Z,20.36
2018-05-13T12:29:50.167Z,20.32
2018-05-13T12:30:50.187Z,20.34
2018-05-13T12:31:50.249Z,20.52
2018-05-13T12:32:50.178Z,20.44
2018-05-13T12:33:49.939Z,20.59
2018-05-13T12:34:49.659Z,20.67
2018-05-13T12:35:49.933Z,20.72
2018-05-13T12:36:49.960Z,20.69
2018-05-13T12:37:49.683Z,20.7
2018-05-13T12:38:50.000Z,20.8
2018-05-13T12:39:49.975Z,20.92
2018-05-13T12:40:49.968Z,20.97
2018-05-13T12:41:49.951Z,21.07
2018-05-13T12:42:50.212Z,21.25
2018-05-13T12:43:50.761Z,21.33
2018-05-13T12:44:49.689Z,21.33
2018-05-13T12:45:49.970Z,21.25
2018-05-13T12:46:50.226Z,21.2
2018-05-13T12:47:49.702Z,21.21
2018-05-13T12:48:49.732Z,21.09
2018-05-13T12:49:50.250Z,21.02
2018-05-13T12:50:49.985Z,20.84
2018-05-13T12:51:50.241Z,20.81
2018-05-13T12:52:49.993Z,20.8
2018-05-13T12:53:50.249Z,20.8
2018-05-13T12:54:50.253Z,20.72
2018-05-13T12:55:50.013Z,20.66
2018-05-13T12:56:50.003Z,20.67
2018-05-13T12:57:50.009Z,20.66
2018-05-13T12:58:50.275Z,20.67
2018-05-13T12:59:49.745Z,20.67
2018-05-13T13:00:50.020Z,20.69
2018-05-13T13:01:50.019Z,20.81
2018-05-13T13:02:50.285Z,20.82
2018-05-13T13:03:50.153Z,20.72
2018-05-13T13:04:50.293Z,20.63
2018-05-13T13:05:50.030Z,20.58
2018-05-13T13:06:50.312Z,20.63
2018-05-13T13:07:50.173Z,20.72
2018-05-13T13:08:50.358Z,20.87
2018-05-13T13:09:50.038Z,20.72
2018-05-13T13:10:50.083Z,20.72
2018-05-13T13:11:50.057Z,20.8
2018-05-13T13:12:49.792Z,20.87
2018-05-13T13:13:49.810Z,20.93
2018-05-13T13:14:50.069Z,21.11
2018-05-13T13:15:50.320Z,21.07
2018-05-13T13:16:49.809Z,20.99
2018-05-13T13:17:49.813Z,20.67
2018-05-13T13:18:50.077Z,20.63
2018-05-13T13:19:50.094Z,20.52
2018-05-13T13:20:50.090Z,20.56
2018-05-13T13:21:50.088Z,20.65
2018-05-13T13:22:50.097Z,20.56
2018-05-13T13:23:50.091Z,20.48
2018-05-13T13:24:50.353Z,20.34
2018-05-13T13:25:50.186Z,20.36
2018-05-13T13:26:50.123Z,20.22
2018-05-13T13:27:49.850Z,20.25
2018-05-13T13:28:50.370Z,20.37
2018-05-13T13:29:50.109Z,20.52
2018-05-13T13:30:50.633Z,20.52
2018-05-13T13:31:50.136Z,20.5
2018-05-13T13:32:50.229Z,20.65
2018-05-13T13:33:50.134Z,20.63
2018-05-13T13:34:50.136Z,20.69
2018-05-13T13:35:50.133Z,20.56